メインページ
METAR-TAF:

METAR-TAF

空港 :

メキシコシティ, メキシコ

メキシコ・シティ国際空港

緯度: 19-26N, 経度: 099-06W, 海抜: 2238m

現時点の気象観測

当レポートは51分前の18:51(UTC)に作成
東/北東の風 6kt、最大16ktの突風を伴う
気温 25°C
湿度 17%
気圧 1026 hPa
視程: 12.9km
晴天

METAR: MMMX 251851Z 06006G16KT 8SM SKC 25/M02 A3029 NOSIG RMK HZY CU ARND

時間: 13:42 (19:42 UTC)

予報

当レポートは2時間42分前の17:00(UTC)に作成
予報は25日の 18時(UTC)から 26日の 24時(UTC)まで有効
の風 8kt
視程: 9.7km
高度3000ftの雲は散在している
煙霧
25日の 2100時(UTC)から
北/北東の風 15kt、最大25ktの突風を伴う
視程: 10km
高度3000ftの千切れ雲あり, 積乱雲.
高度8000ftの千切れ雲あり
近辺で, にわか雨
25日の 22時(UTC)から 26日の 02時(UTC)まで一時的に
視程: 4.8km
激しい雷雨, 雨
26日の 0300時(UTC)から
北東の風 6kt
視程: 10km
高度3000ftの雲は散在している
高度8000ftの千切れ雲あり
確率 40%
26日の 03時(UTC)から 26日の 07時(UTC)まで
視程: 9.7km
小雨
26日の 0800時(UTC)から
の風 kt
視程: 10km
高度3000ftの雲は散在している
高度8000ftの千切れ雲あり
26日の 1300時(UTC)から
東/南東の風 5kt
視程: 8.0km
高度8000ftの雲は散在している
煙霧
26日の 2000時(UTC)から
南/南東の風 12kt
視程: 9.7km
高度3000ftの千切れ雲あり, 積乱雲.
高度8000ftの千切れ雲あり
煙霧
確率 40%
26日の 21時(UTC)から 26日の 24時(UTC)まで
視程: 8.0km
激しい雷雨, 雨

TAF: MMMX 251700Z 2518/2624 36008KT 6SM HZ SCT030 TX27/2521Z TN12/2613Z FM252100 03015G25KT P6SM VC SH BKN030CB BKN080 TEMPO 2522/2602 3SM TSRA FM260300 04006KT P6SM SCT030 BKN080 PROB40 2603/2607 6SM -RA FM260800 00000KT P6SM SCT030 BKN080 FM261300 12005KT 5SM HZ SCT080 FM262000 16012KT 6SM HZ BKN030CB BKN080 PROB40 2621/2624 5SM TSRA

4,000以上の空港の気象観測と天気予報(METAR報とTAF報)

利用可能な観測所は地図上に黄色い丸と赤い丸で示す。

丸の上にカーソルを重ねると観測所名を参照できる。

次にクリックすると気象観測と天気予報を参照できる。

マップの切り替え:黒色「×」印の緑ボタンをクリックして拡大、「-」印の緑ボタンをクリックして縮小、緑色の三角印をクリックして隣りの地図に切り替え


METAR-TAF: